createdAt,value
2023-03-01T00:00:01.142Z,9.35
2023-03-01T00:00:23.139Z,9.33
2023-03-01T00:00:47.645Z,9.28
2023-03-01T00:01:11.690Z,9.33
2023-03-01T00:01:34.518Z,9.36
2023-03-01T00:01:58.535Z,9.37
2023-03-01T00:02:20.593Z,9.41
2023-03-01T00:02:42.545Z,9.41
2023-03-01T00:03:05.267Z,9.41
2023-03-01T00:03:26.887Z,9.44
2023-03-01T00:03:48.801Z,9.43
2023-03-01T00:04:11.494Z,9.42
2023-03-01T00:04:34.713Z,9.45
2023-03-01T00:04:56.325Z,9.43
2023-03-01T00:05:18.092Z,9.44
2023-03-01T00:05:45.434Z,9.41
2023-03-01T00:06:08.442Z,9.47
2023-03-01T00:06:30.327Z,9.44
2023-03-01T00:06:54.519Z,9.43
2023-03-01T00:07:16.109Z,9.44
2023-03-01T00:07:38.682Z,9.42
2023-03-01T00:08:00.300Z,9.40
2023-03-01T00:08:21.906Z,9.40
2023-03-01T00:08:43.644Z,9.40
2023-03-01T00:09:06.550Z,9.40
2023-03-01T00:09:28.148Z,9.43
2023-03-01T00:09:51.302Z,9.39
2023-03-01T00:10:12.904Z,9.40
2023-03-01T00:10:35.561Z,9.40
2023-03-01T00:11:05.334Z,9.39
2023-03-01T00:11:28.532Z,9.42
2023-03-01T00:11:50.126Z,9.41
2023-03-01T00:12:12.733Z,9.42
2023-03-01T00:12:34.335Z,9.42
2023-03-01T00:12:57.360Z,9.45
2023-03-01T00:13:18.967Z,9.43
2023-03-01T00:13:42.670Z,9.39
2023-03-01T00:14:05.800Z,9.41
2023-03-01T00:14:28.536Z,9.40
2023-03-01T00:14:50.151Z,9.39
2023-03-01T00:15:12.524Z,9.32
2023-03-01T00:15:36.119Z,9.34
2023-03-01T00:15:57.909Z,9.35
2023-03-01T00:16:22.138Z,9.35
2023-03-01T00:16:45.542Z,9.35
2023-03-01T00:17:08.228Z,9.33
2023-03-01T00:17:29.860Z,9.29
2023-03-01T00:17:51.481Z,9.32
2023-03-01T00:18:13.116Z,9.33
2023-03-01T00:18:37.241Z,9.30
2023-03-01T00:18:59.165Z,9.33
2023-03-01T00:19:21.190Z,9.31
2023-03-01T00:19:42.881Z,9.33
2023-03-01T00:20:08.846Z,9.30
2023-03-01T00:20:30.822Z,9.31
2023-03-01T00:20:52.972Z,9.34
2023-03-01T00:21:15.078Z,9.36
2023-03-01T00:21:36.850Z,9.30
2023-03-01T00:22:00.781Z,9.34
2023-03-01T00:22:22.336Z,9.31
2023-03-01T00:22:43.915Z,9.30
2023-03-01T00:23:05.490Z,9.28
2023-03-01T00:23:27.550Z,9.26
2023-03-01T00:23:53.222Z,9.30
2023-03-01T00:24:15.322Z,9.32
2023-03-01T00:24:36.891Z,9.33
2023-03-01T00:24:58.521Z,9.34
2023-03-01T00:25:20.086Z,9.31
2023-03-01T00:25:43.586Z,9.30
2023-03-01T00:26:07.976Z,9.27
2023-03-01T00:26:31.334Z,9.24
2023-03-01T00:26:56.202Z,9.21
2023-03-01T00:27:18.736Z,9.21
2023-03-01T00:27:42.362Z,9.22
2023-03-01T00:28:03.963Z,9.20
2023-03-01T00:28:25.943Z,9.22
2023-03-01T00:28:48.188Z,9.24
2023-03-01T00:29:11.294Z,9.25
2023-03-01T00:29:32.887Z,9.23
2023-03-01T00:29:55.130Z,9.19
2023-03-01T00:30:17.371Z,9.20
2023-03-01T00:30:39.049Z,9.20
2023-03-01T00:31:05.654Z,9.20
2023-03-01T00:31:30.095Z,9.12
2023-03-01T00:31:52.995Z,9.16
2023-03-01T00:32:15.756Z,9.15
2023-03-01T00:32:37.388Z,9.18
2023-03-01T00:32:59.162Z,9.13
2023-03-01T00:33:20.799Z,9.12
2023-03-01T00:33:46.181Z,9.07
2023-03-01T00:34:10.019Z,9.16
2023-03-01T00:34:31.781Z,9.17
2023-03-01T00:34:56.482Z,9.16
2023-03-01T00:35:18.225Z,9.16
2023-03-01T00:35:41.133Z,9.15
2023-03-01T00:36:06.233Z,9.13
2023-03-01T00:36:32.009Z,9.11
2023-03-01T00:36:53.968Z,9.10
2023-03-01T00:37:16.927Z,9.13
2023-03-01T00:37:39.524Z,9.12
2023-03-01T00:38:01.723Z,9.07
2023-03-01T00:38:23.323Z,9.06
2023-03-01T00:38:46.570Z,9.02
2023-03-01T00:39:13.870Z,9.03
2023-03-01T00:39:35.538Z,9.02
2023-03-01T00:39:57.243Z,9.00
2023-03-01T00:40:19.017Z,9.00
2023-03-01T00:40:41.606Z,8.99
2023-03-01T00:41:09.487Z,9.02
2023-03-01T00:41:31.378Z,9.01
2023-03-01T00:41:52.966Z,9.00
2023-03-01T00:42:15.820Z,8.98
2023-03-01T00:42:37.429Z,8.95
2023-03-01T00:42:59.081Z,8.98
2023-03-01T00:43:21.069Z,8.96
2023-03-01T00:43:43.288Z,8.84
2023-03-01T00:44:06.090Z,8.96
2023-03-01T00:44:29.191Z,9.02
2023-03-01T00:44:50.849Z,8.98
2023-03-01T00:45:14.122Z,8.97
2023-03-01T00:45:39.017Z,8.98
2023-03-01T00:46:02.113Z,9.02
2023-03-01T00:46:25.735Z,8.99
2023-03-01T00:46:47.368Z,9.03
2023-03-01T00:47:10.130Z,9.05
2023-03-01T00:47:31.786Z,9.06
2023-03-01T00:47:53.939Z,9.04
2023-03-01T00:48:15.526Z,9.00
2023-03-01T00:48:40.586Z,9.00
2023-03-01T00:49:03.098Z,9.04
2023-03-01T00:49:28.472Z,9.06
2023-03-01T00:49:51.700Z,9.07
2023-03-01T00:50:14.261Z,9.07
2023-03-01T00:50:36.094Z,9.03
2023-03-01T00:50:57.696Z,9.00
2023-03-01T00:51:21.864Z,9.03
2023-03-01T00:51:44.466Z,8.98
2023-03-01T00:52:06.272Z,9.02
2023-03-01T00:52:29.363Z,9.03
2023-03-01T00:52:53.963Z,9.02
2023-03-01T00:53:15.556Z,8.99
2023-03-01T00:53:38.630Z,8.97
2023-03-01T00:54:02.568Z,9.01
2023-03-01T00:54:24.570Z,8.99
2023-03-01T00:54:47.213Z,8.81
2023-03-01T00:55:10.311Z,8.97
2023-03-01T00:55:31.945Z,8.99
2023-03-01T00:55:53.534Z,9.03
2023-03-01T00:56:15.828Z,9.05
2023-03-01T00:56:39.377Z,9.05
2023-03-01T00:57:01.021Z,9.04
2023-03-01T00:57:22.717Z,8.99
2023-03-01T00:57:44.412Z,9.02
2023-03-01T00:58:07.128Z,8.99
2023-03-01T00:58:29.087Z,8.99
2023-03-01T00:58:50.915Z,9.00
2023-03-01T00:59:12.503Z,9.00
2023-03-01T00:59:35.892Z,8.98
2023-03-01T00:59:57.655Z,9.05
2023-03-01T01:00:21.694Z,8.99
2023-03-01T01:00:44.107Z,9.01
2023-03-01T01:01:17.972Z,9.00
2023-03-01T01:01:40.901Z,8.98
2023-03-01T01:02:03.048Z,9.02
2023-03-01T01:02:26.196Z,9.00
2023-03-01T01:02:48.329Z,9.01
2023-03-01T01:03:11.110Z,8.99
2023-03-01T01:03:32.736Z,9.01
2023-03-01T01:03:56.689Z,8.95
2023-03-01T01:04:18.299Z,9.05
2023-03-01T01:04:40.872Z,9.04
2023-03-01T01:05:02.510Z,9.05
2023-03-01T01:05:24.133Z,9.05
2023-03-01T01:05:45.993Z,9.03
2023-03-01T01:06:15.650Z,9.01
2023-03-01T01:06:39.439Z,9.01
2023-03-01T01:07:01.045Z,9.04
2023-03-01T01:07:22.693Z,9.00
2023-03-01T01:07:46.633Z,9.02
2023-03-01T01:08:08.315Z,9.01
2023-03-01T01:08:30.006Z,9.03
2023-03-01T01:08:53.263Z,9.01
2023-03-01T01:09:18.886Z,9.04
2023-03-01T01:09:40.905Z,9.02
2023-03-01T01:10:03.204Z,9.03
2023-03-01T01:10:24.824Z,9.00
2023-03-01T01:10:48.048Z,8.96
2023-03-01T01:11:10.338Z,9.00
2023-03-01T01:11:33.325Z,8.98
2023-03-01T01:11:55.150Z,8.98
2023-03-01T01:12:16.810Z,8.98
2023-03-01T01:12:38.507Z,8.98
2023-03-01T01:13:00.154Z,8.97
2023-03-01T01:13:22.710Z,9.00
2023-03-01T01:13:45.677Z,9.04
2023-03-01T01:14:07.293Z,9.05
2023-03-01T01:14:29.921Z,9.03
2023-03-01T01:14:51.581Z,9.06
2023-03-01T01:15:15.150Z,9.06
2023-03-01T01:15:37.160Z,9.05
2023-03-01T01:16:01.798Z,9.06
2023-03-01T01:16:27.038Z,9.05
2023-03-01T01:16:49.462Z,9.01
2023-03-01T01:17:11.509Z,9.01
2023-03-01T01:17:33.685Z,9.01
2023-03-01T01:17:56.666Z,9.02
2023-03-01T01:18:18.304Z,9.01
2023-03-01T01:18:40.195Z,8.98
2023-03-01T01:19:03.555Z,8.96
2023-03-01T01:19:27.357Z,8.92
2023-03-01T01:19:50.390Z,8.94
2023-03-01T01:20:12.920Z,8.94
2023-03-01T01:20:36.581Z,8.95
2023-03-01T01:20:58.381Z,8.92
2023-03-01T01:21:23.693Z,8.94
2023-03-01T01:21:45.996Z,8.93
2023-03-01T01:22:07.692Z,8.95
2023-03-01T01:22:29.323Z,8.93
2023-03-01T01:22:52.343Z,8.93
2023-03-01T01:23:15.014Z,8.92
2023-03-01T01:23:37.620Z,8.96
2023-03-01T01:24:00.065Z,8.98
2023-03-01T01:24:21.818Z,8.95
2023-03-01T01:24:46.032Z,8.97
2023-03-01T01:25:08.362Z,8.97
2023-03-01T01:25:30.003Z,8.97
2023-03-01T01:25:51.605Z,8.99
2023-03-01T01:26:15.115Z,9.01
2023-03-01T01:26:37.659Z,9.02
2023-03-01T01:27:00.064Z,9.02
2023-03-01T01:27:23.124Z,8.91
2023-03-01T01:27:44.839Z,9.01
2023-03-01T01:28:07.402Z,9.03
2023-03-01T01:28:29.057Z,9.01
2023-03-01T01:28:52.798Z,9.04
2023-03-01T01:29:14.533Z,9.03
2023-03-01T01:29:37.595Z,9.06
2023-03-01T01:30:26.449Z,9.05
2023-03-01T01:30:48.120Z,8.95
2023-03-01T01:31:09.783Z,9.07
2023-03-01T01:31:33.780Z,9.07
2023-03-01T01:31:55.449Z,9.07
2023-03-01T01:32:17.124Z,9.06
2023-03-01T01:32:38.945Z,9.05
2023-03-01T01:33:01.574Z,9.04
2023-03-01T01:33:23.216Z,9.05
2023-03-01T01:33:45.368Z,9.00
2023-03-01T01:34:08.513Z,9.04
2023-03-01T01:34:31.042Z,9.08
2023-03-01T01:34:53.058Z,9.10
2023-03-01T01:35:15.853Z,9.07
2023-03-01T01:35:37.443Z,9.08
2023-03-01T01:35:59.039Z,9.07
2023-03-01T01:36:22.136Z,9.08
2023-03-01T01:36:43.781Z,9.08
2023-03-01T01:37:08.750Z,9.08
2023-03-01T01:37:32.081Z,9.08
2023-03-01T01:37:56.077Z,9.06
2023-03-01T01:38:17.747Z,9.09
2023-03-01T01:38:40.102Z,9.08
2023-03-01T01:39:02.533Z,9.08
2023-03-01T01:39:25.404Z,8.98
2023-03-01T01:39:47.076Z,9.07
2023-03-01T01:40:12.716Z,8.98
2023-03-01T01:40:34.312Z,9.00
2023-03-01T01:40:56.105Z,9.01
2023-03-01T01:41:20.024Z,9.03
2023-03-01T01:41:43.131Z,9.05
2023-03-01T01:42:05.005Z,9.04
2023-03-01T01:42:29.479Z,8.97
2023-03-01T01:42:52.531Z,8.98
2023-03-01T01:43:20.176Z,8.99
2023-03-01T01:43:44.968Z,8.96
2023-03-01T01:44:13.616Z,9.00
2023-03-01T01:44:36.411Z,9.00
2023-03-01T01:45:32.849Z,8.97
2023-03-01T01:45:57.817Z,8.96
2023-03-01T01:46:30.456Z,8.96
2023-03-01T01:46:56.498Z,8.98
2023-03-01T01:47:23.306Z,8.99
2023-03-01T01:47:49.481Z,8.95
2023-03-01T01:48:16.229Z,8.85
2023-03-01T01:48:42.286Z,8.94
2023-03-01T01:49:10.551Z,8.93
2023-03-01T01:49:37.509Z,8.92
2023-03-01T01:49:59.136Z,8.91
2023-03-01T01:50:21.027Z,8.88
2023-03-01T01:50:42.768Z,8.88
2023-03-01T01:51:04.990Z,8.91
2023-03-01T01:51:39.242Z,8.91
2023-03-01T01:52:07.082Z,8.88
2023-03-01T01:52:32.501Z,8.90
2023-03-01T01:52:56.701Z,8.88
2023-03-01T01:53:20.821Z,8.91
2023-03-01T01:53:45.337Z,8.93
2023-03-01T01:54:11.974Z,8.95
2023-03-01T01:54:42.641Z,8.92
2023-03-01T01:55:07.880Z,8.91
2023-03-01T01:55:29.716Z,8.91
2023-03-01T01:55:58.040Z,8.88
2023-03-01T01:56:22.659Z,8.91
2023-03-01T01:56:51.612Z,8.91
2023-03-01T01:57:17.186Z,8.88
2023-03-01T01:57:41.740Z,8.90
2023-03-01T01:58:08.038Z,8.89
2023-03-01T01:58:33.433Z,8.92
2023-03-01T01:58:56.532Z,8.88
2023-03-01T01:59:18.155Z,8.88
2023-03-01T01:59:41.388Z,8.87
2023-03-01T02:00:06.377Z,8.85
2023-03-01T02:00:36.329Z,8.81
2023-03-01T02:00:57.979Z,8.84
2023-03-01T02:01:20.507Z,8.84
2023-03-01T02:01:43.617Z,8.87
2023-03-01T02:02:06.157Z,8.86
2023-03-01T02:02:29.152Z,8.86
2023-03-01T02:02:55.841Z,8.84
2023-03-01T02:03:21.790Z,8.84
2023-03-01T02:03:47.523Z,8.84
2023-03-01T02:04:10.271Z,8.84
2023-03-01T02:04:33.172Z,8.85
2023-03-01T02:05:04.562Z,8.84
2023-03-01T02:05:33.866Z,8.83
2023-03-01T02:06:02.658Z,8.85
2023-03-01T02:06:32.435Z,8.83
2023-03-01T02:07:02.266Z,8.81
2023-03-01T02:07:26.451Z,8.79
2023-03-01T02:07:49.585Z,8.76
2023-03-01T02:08:17.864Z,8.79
2023-03-01T02:08:43.114Z,8.80
2023-03-01T02:09:09.923Z,8.81
2023-03-01T02:09:33.234Z,8.79
2023-03-01T02:09:57.133Z,8.77
2023-03-01T02:10:18.923Z,8.79
2023-03-01T02:10:41.627Z,8.77
2023-03-01T02:11:06.017Z,8.80
2023-03-01T02:11:30.416Z,8.79
2023-03-01T02:11:53.111Z,8.72
2023-03-01T02:12:16.078Z,8.79
2023-03-01T02:12:40.618Z,8.74
2023-03-01T02:13:03.658Z,8.78
2023-03-01T02:13:28.073Z,8.77
2023-03-01T02:13:51.157Z,8.79
2023-03-01T02:14:12.730Z,8.76
2023-03-01T02:14:35.472Z,8.72
2023-03-01T02:14:57.115Z,8.72
2023-03-01T02:15:21.077Z,8.70
2023-03-01T02:15:44.987Z,8.73
2023-03-01T02:16:11.316Z,8.72
2023-03-01T02:16:34.094Z,8.71
2023-03-01T02:16:56.443Z,8.71
2023-03-01T02:17:19.290Z,8.75
2023-03-01T02:17:43.176Z,8.77
2023-03-01T02:18:06.119Z,8.80
2023-03-01T02:18:28.063Z,8.79
2023-03-01T02:18:51.504Z,8.78
2023-03-01T02:19:28.540Z,8.81
2023-03-01T02:20:07.783Z,8.81
2023-03-01T02:20:36.657Z,8.80
2023-03-01T02:21:22.796Z,8.79
2023-03-01T02:21:56.436Z,8.80
2023-03-01T02:22:23.850Z,8.75
2023-03-01T02:22:47.423Z,8.69
2023-03-01T02:23:10.428Z,8.73
2023-03-01T02:23:34.764Z,8.78
2023-03-01T02:23:57.448Z,8.75
2023-03-01T02:24:27.766Z,8.75
2023-03-01T02:25:03.195Z,8.73
2023-03-01T02:25:33.284Z,8.72
2023-03-01T02:26:02.228Z,8.75
2023-03-01T02:26:30.025Z,8.59
2023-03-01T02:26:55.836Z,8.75
2023-03-01T02:27:23.098Z,8.70
2023-03-01T02:27:51.886Z,8.75
2023-03-01T02:28:26.885Z,8.75
2023-03-01T02:28:49.492Z,8.70
2023-03-01T02:29:12.497Z,8.70
2023-03-01T02:29:35.974Z,8.67
2023-03-01T02:29:57.884Z,8.70
2023-03-01T02:30:22.558Z,8.70
2023-03-01T02:31:02.732Z,8.52
2023-03-01T02:31:51.226Z,8.62
2023-03-01T02:32:14.504Z,8.59
2023-03-01T02:32:36.746Z,8.55
2023-03-01T02:33:04.069Z,8.63
2023-03-01T02:33:27.029Z,8.60
2023-03-01T02:33:50.169Z,8.55
2023-03-01T02:34:14.789Z,8.57
2023-03-01T02:34:37.727Z,8.59
2023-03-01T02:35:00.703Z,8.49
2023-03-01T02:35:22.557Z,8.61
2023-03-01T02:35:44.256Z,8.61
2023-03-01T02:36:09.106Z,8.63
2023-03-01T02:36:36.879Z,8.61
2023-03-01T02:37:05.501Z,8.60
2023-03-01T02:37:28.286Z,8.62
2023-03-01T02:37:51.629Z,8.62
2023-03-01T02:38:13.362Z,8.61
2023-03-01T02:38:34.947Z,8.61
2023-03-01T02:38:59.495Z,8.56
2023-03-01T02:39:25.129Z,8.60
2023-03-01T02:39:53.055Z,8.56
2023-03-01T02:40:18.695Z,8.55
2023-03-01T02:40:41.826Z,8.54
2023-03-01T02:41:06.804Z,8.51
2023-03-01T02:41:32.730Z,8.52
2023-03-01T02:41:57.615Z,8.51
2023-03-01T02:42:27.125Z,8.44
2023-03-01T02:42:53.713Z,8.47
2023-03-01T02:43:16.138Z,8.48
2023-03-01T02:43:39.501Z,8.45
2023-03-01T02:44:01.338Z,8.46
2023-03-01T02:44:25.448Z,8.41
2023-03-01T02:44:47.118Z,8.41
2023-03-01T02:45:09.517Z,8.41
2023-03-01T02:45:31.391Z,8.42
2023-03-01T02:45:54.391Z,8.39
2023-03-01T02:46:19.382Z,8.19
2023-03-01T02:46:45.837Z,8.36
2023-03-01T02:47:07.796Z,8.40
2023-03-01T02:47:33.031Z,8.39
2023-03-01T02:47:55.773Z,8.44
2023-03-01T02:48:17.603Z,8.45
2023-03-01T02:48:43.173Z,8.46
2023-03-01T02:49:22.232Z,8.49
2023-03-01T02:49:43.929Z,8.48
2023-03-01T02:50:16.782Z,8.43
2023-03-01T02:50:55.047Z,8.44
2023-03-01T02:51:35.315Z,8.39
2023-03-01T02:52:12.400Z,8.47
2023-03-01T02:52:51.123Z,8.46
2023-03-01T02:53:16.611Z,8.51
2023-03-01T02:53:49.076Z,8.52
2023-03-01T02:54:22.333Z,8.55
2023-03-01T02:54:52.614Z,8.54
2023-03-01T02:55:17.341Z,8.56
2023-03-01T02:55:42.037Z,8.51
2023-03-01T02:56:05.747Z,8.48
2023-03-01T02:56:29.150Z,8.48
2023-03-01T02:56:51.915Z,8.48
2023-03-01T02:57:16.618Z,8.47
2023-03-01T02:57:41.455Z,8.43
2023-03-01T02:58:05.372Z,8.40
2023-03-01T02:58:28.743Z,8.41
2023-03-01T02:58:53.057Z,8.41
2023-03-01T02:59:16.557Z,8.36
2023-03-01T02:59:41.560Z,8.40
2023-03-01T03:00:09.138Z,8.39
2023-03-01T03:00:36.629Z,8.36
2023-03-01T03:01:01.806Z,8.37
2023-03-01T03:01:24.146Z,8.36
2023-03-01T03:01:47.380Z,8.36
2023-03-01T03:02:21.208Z,8.36
2023-03-01T03:02:42.804Z,8.35
2023-03-01T03:03:11.514Z,8.33
2023-03-01T03:03:33.285Z,8.35
2023-03-01T03:03:55.950Z,8.35
2023-03-01T03:04:21.845Z,8.37
2023-03-01T03:04:44.727Z,8.39
2023-03-01T03:05:09.895Z,8.37
2023-03-01T03:05:33.195Z,8.40
2023-03-01T03:05:54.966Z,8.35
2023-03-01T03:06:16.662Z,8.35
2023-03-01T03:06:38.920Z,8.26
2023-03-01T03:07:00.602Z,8.32
2023-03-01T03:07:23.222Z,8.30
2023-03-01T03:07:47.095Z,8.32
2023-03-01T03:08:08.820Z,8.32
2023-03-01T03:08:31.945Z,8.31
2023-03-01T03:08:54.595Z,8.33
2023-03-01T03:09:18.276Z,8.33
2023-03-01T03:09:40.849Z,8.35
2023-03-01T03:10:02.678Z,8.32
2023-03-01T03:10:26.225Z,8.33
2023-03-01T03:10:48.864Z,8.32
2023-03-01T03:11:10.427Z,8.29
2023-03-01T03:11:33.300Z,8.26
2023-03-01T03:11:54.935Z,8.27
2023-03-01T03:12:18.349Z,8.25
2023-03-01T03:12:40.181Z,8.28
2023-03-01T03:13:04.814Z,8.28
2023-03-01T03:13:29.281Z,8.29
2023-03-01T03:13:53.328Z,8.25
2023-03-01T03:14:16.892Z,8.24
2023-03-01T03:14:42.825Z,8.24
2023-03-01T03:15:09.638Z,8.23
2023-03-01T03:15:31.456Z,8.19
2023-03-01T03:15:54.063Z,8.23
2023-03-01T03:16:16.087Z,8.23
2023-03-01T03:16:38.214Z,8.24
2023-03-01T03:16:59.829Z,8.21
2023-03-01T03:17:21.810Z,8.23
2023-03-01T03:17:46.234Z,8.21
2023-03-01T03:18:10.535Z,8.23
2023-03-01T03:18:32.626Z,8.23
2023-03-01T03:18:54.223Z,8.20
2023-03-01T03:19:17.535Z,8.10
2023-03-01T03:19:40.099Z,8.11
2023-03-01T03:20:01.871Z,8.18
2023-03-01T03:20:26.886Z,8.18
2023-03-01T03:20:53.675Z,8.03
2023-03-01T03:21:17.253Z,8.18
2023-03-01T03:21:39.134Z,8.17
2023-03-01T03:22:00.746Z,8.18
2023-03-01T03:22:23.680Z,8.19
2023-03-01T03:22:46.331Z,8.18
2023-03-01T03:23:09.007Z,8.16
2023-03-01T03:23:31.049Z,8.17
2023-03-01T03:23:52.674Z,8.09
2023-03-01T03:24:14.286Z,8.13
2023-03-01T03:24:39.075Z,8.13
2023-03-01T03:25:02.070Z,8.14
2023-03-01T03:25:24.181Z,8.14
2023-03-01T03:25:49.503Z,8.09
2023-03-01T03:26:14.293Z,8.15
2023-03-01T03:26:36.977Z,8.16
2023-03-01T03:26:58.850Z,8.16
2023-03-01T03:27:20.757Z,8.09
2023-03-01T03:27:45.103Z,8.17
2023-03-01T03:28:10.422Z,8.09
2023-03-01T03:28:33.774Z,8.17
2023-03-01T03:29:00.359Z,8.18
2023-03-01T03:29:21.957Z,8.13
2023-03-01T03:29:43.542Z,8.14
2023-03-01T03:30:09.871Z,8.14
2023-03-01T03:30:33.547Z,8.14
2023-03-01T03:30:55.180Z,8.14
2023-03-01T03:31:17.083Z,8.12
2023-03-01T03:31:38.736Z,7.96
2023-03-01T03:32:00.972Z,8.12
2023-03-01T03:32:23.656Z,8.13
2023-03-01T03:32:53.979Z,8.13
2023-03-01T03:33:15.565Z,8.04
2023-03-01T03:33:37.646Z,8.16
2023-03-01T03:34:00.848Z,8.15
2023-03-01T03:34:22.548Z,8.13
2023-03-01T03:34:44.208Z,8.15
2023-03-01T03:35:10.297Z,8.12
2023-03-01T03:35:33.793Z,8.11
2023-03-01T03:35:56.456Z,8.09
2023-03-01T03:36:19.277Z,8.11
2023-03-01T03:36:40.855Z,8.09
2023-03-01T03:37:02.401Z,8.16
2023-03-01T03:37:42.445Z,8.14
2023-03-01T03:38:16.263Z,8.19
2023-03-01T03:38:37.800Z,8.18
2023-03-01T03:38:59.342Z,8.20
2023-03-01T03:39:22.149Z,8.17
2023-03-01T03:39:43.778Z,8.17
2023-03-01T03:40:16.178Z,8.07
2023-03-01T03:40:39.309Z,8.18
2023-03-01T03:41:04.785Z,8.21
2023-03-01T03:41:26.445Z,8.23
2023-03-01T03:41:48.045Z,8.23
2023-03-01T03:42:11.041Z,8.23
2023-03-01T03:42:33.638Z,8.24
2023-03-01T03:42:55.677Z,8.24
2023-03-01T03:43:19.980Z,8.22
2023-03-01T03:43:43.632Z,8.21
2023-03-01T03:44:07.599Z,8.19
2023-03-01T03:44:29.178Z,8.19
2023-03-01T03:44:50.739Z,8.18
2023-03-01T03:45:12.414Z,8.21
2023-03-01T03:45:34.571Z,8.19
2023-03-01T03:45:58.034Z,8.19
2023-03-01T03:46:19.811Z,8.17
2023-03-01T03:46:41.401Z,8.19
2023-03-01T03:47:03.023Z,8.17
2023-03-01T03:47:24.636Z,8.21
2023-03-01T03:47:46.281Z,8.21
2023-03-01T03:48:11.214Z,8.23
2023-03-01T03:48:34.739Z,8.15
2023-03-01T03:48:56.337Z,8.22
2023-03-01T03:49:19.184Z,8.22
2023-03-01T03:49:40.814Z,8.21
2023-03-01T03:50:02.397Z,8.21
2023-03-01T03:50:24.073Z,8.21
2023-03-01T03:50:50.369Z,8.18
2023-03-01T03:51:14.068Z,8.13
2023-03-01T03:51:35.902Z,8.15
2023-03-01T03:51:58.008Z,8.16
2023-03-01T03:52:19.579Z,8.16
2023-03-01T03:52:41.466Z,8.19
2023-03-01T03:53:06.171Z,8.17
2023-03-01T03:53:38.600Z,8.15
2023-03-01T03:54:00.193Z,8.21
2023-03-01T03:54:25.058Z,8.20
2023-03-01T03:54:46.619Z,8.18
2023-03-01T03:55:11.726Z,8.17
2023-03-01T03:55:34.795Z,8.16
2023-03-01T03:55:57.991Z,8.16
2023-03-01T03:56:19.581Z,8.16
2023-03-01T03:56:41.166Z,8.14
2023-03-01T03:57:02.777Z,8.14
2023-03-01T03:57:24.638Z,8.12
2023-03-01T03:57:52.182Z,8.12
2023-03-01T03:58:13.765Z,8.11
2023-03-01T03:58:35.646Z,8.13
2023-03-01T03:58:58.168Z,8.15
2023-03-01T03:59:21.092Z,8.07
2023-03-01T03:59:42.714Z,8.11
2023-03-01T04:00:06.294Z,8.14
2023-03-01T04:00:35.328Z,8.14
2023-03-01T04:00:59.039Z,8.12
2023-03-01T04:01:20.863Z,8.11
2023-03-01T04:01:44.996Z,8.13
2023-03-01T04:02:08.932Z,8.10
2023-03-01T04:02:31.666Z,8.17
2023-03-01T04:02:57.297Z,8.17
2023-03-01T04:03:21.175Z,8.17
2023-03-01T04:03:47.431Z,8.22
2023-03-01T04:04:09.011Z,8.24
2023-03-01T04:04:30.667Z,8.18
2023-03-01T04:04:53.285Z,8.22
2023-03-01T04:05:16.952Z,8.12
2023-03-01T04:05:39.484Z,8.18
2023-03-01T04:06:01.494Z,8.20
2023-03-01T04:06:24.087Z,8.18
2023-03-01T04:06:45.688Z,8.03
2023-03-01T04:07:07.295Z,8.06
2023-03-01T04:07:28.947Z,8.13
2023-03-01T04:08:01.971Z,8.12
2023-03-01T04:08:25.332Z,8.12
2023-03-01T04:08:47.176Z,8.14
2023-03-01T04:09:08.752Z,8.14
2023-03-01T04:09:31.284Z,8.15
2023-03-01T04:09:52.840Z,8.12
2023-03-01T04:10:18.592Z,8.12
2023-03-01T04:10:41.992Z,8.16
2023-03-01T04:11:20.157Z,8.14
2023-03-01T04:11:42.691Z,8.16
2023-03-01T04:12:04.579Z,8.15
2023-03-01T04:12:26.208Z,8.09
2023-03-01T04:12:47.794Z,8.14
2023-03-01T04:13:13.644Z,8.16
2023-03-01T04:13:37.345Z,8.16
2023-03-01T04:14:00.962Z,8.13
2023-03-01T04:14:26.252Z,8.14
2023-03-01T04:14:48.960Z,8.14
2023-03-01T04:15:13.998Z,8.12
2023-03-01T04:15:37.352Z,8.12
2023-03-01T04:15:59.443Z,8.15
2023-03-01T04:16:21.132Z,8.10
2023-03-01T04:16:43.226Z,8.15
2023-03-01T04:17:06.316Z,8.14
2023-03-01T04:17:28.263Z,8.14
2023-03-01T04:17:50.868Z,8.13
2023-03-01T04:18:14.115Z,8.07
2023-03-01T04:18:36.708Z,8.00
2023-03-01T04:19:00.625Z,8.10
2023-03-01T04:19:22.277Z,8.11
2023-03-01T04:19:45.977Z,8.10
2023-03-01T04:20:10.362Z,8.12
2023-03-01T04:20:35.768Z,8.13
2023-03-01T04:20:57.645Z,8.10
2023-03-01T04:21:21.183Z,8.11
2023-03-01T04:21:43.754Z,8.10
2023-03-01T04:22:10.236Z,8.14
2023-03-01T04:22:32.963Z,8.15
2023-03-01T04:22:59.293Z,8.10
2023-03-01T04:23:22.091Z,8.12
2023-03-01T04:23:44.992Z,8.14
2023-03-01T04:24:07.742Z,8.12
2023-03-01T04:24:29.421Z,8.13
2023-03-01T04:24:50.995Z,8.14
2023-03-01T04:25:14.971Z,8.14
2023-03-01T04:25:37.826Z,8.16
2023-03-01T04:26:00.668Z,8.18
2023-03-01T04:26:22.299Z,8.19
2023-03-01T04:26:44.885Z,8.20
2023-03-01T04:27:06.564Z,8.19
2023-03-01T04:27:28.247Z,8.22
2023-03-01T04:27:49.875Z,8.23
2023-03-01T04:28:11.648Z,8.23
2023-03-01T04:28:37.115Z,8.23
2023-03-01T04:28:58.749Z,8.23
2023-03-01T04:29:20.379Z,8.19
2023-03-01T04:29:43.304Z,8.20
2023-03-01T04:30:06.646Z,8.19
2023-03-01T04:30:28.259Z,8.18
2023-03-01T04:30:49.853Z,8.19
2023-03-01T04:31:14.469Z,8.22
2023-03-01T04:31:37.504Z,8.18
2023-03-01T04:32:00.040Z,8.18
2023-03-01T04:32:21.825Z,8.18
2023-03-01T04:32:46.379Z,8.18
2023-03-01T04:33:09.767Z,8.20
2023-03-01T04:33:32.628Z,8.22
2023-03-01T04:33:55.798Z,8.22
2023-03-01T04:34:17.452Z,8.23
2023-03-01T04:34:39.268Z,8.22
2023-03-01T04:35:02.272Z,8.22
2023-03-01T04:35:24.186Z,8.15
2023-03-01T04:35:46.167Z,8.14
2023-03-01T04:36:09.850Z,8.13
2023-03-01T04:36:36.652Z,8.15
2023-03-01T04:36:58.814Z,8.16
2023-03-01T04:37:21.543Z,8.05
2023-03-01T04:37:43.106Z,8.07
2023-03-01T04:38:05.960Z,8.09
2023-03-01T04:38:28.462Z,8.12
2023-03-01T04:38:50.234Z,8.10
2023-03-01T04:39:13.185Z,8.10
2023-03-01T04:39:46.721Z,8.11
2023-03-01T04:40:16.880Z,8.10
2023-03-01T04:40:38.822Z,8.04
2023-03-01T04:41:01.367Z,7.93
2023-03-01T04:41:24.972Z,8.09
2023-03-01T04:41:46.770Z,8.11
2023-03-01T04:42:08.413Z,8.12
2023-03-01T04:42:29.947Z,8.12
2023-03-01T04:42:52.538Z,8.15
2023-03-01T04:43:15.454Z,8.16
2023-03-01T04:43:37.976Z,8.18
2023-03-01T04:44:01.207Z,8.19
2023-03-01T04:44:22.982Z,8.21
2023-03-01T04:44:46.623Z,8.20
2023-03-01T04:45:14.027Z,8.21
2023-03-01T04:45:36.982Z,8.21
2023-03-01T04:46:03.624Z,8.21
2023-03-01T04:46:26.330Z,8.22
2023-03-01T04:46:51.015Z,8.24
2023-03-01T04:47:12.814Z,8.24
2023-03-01T04:47:34.444Z,8.20
2023-03-01T04:47:59.038Z,8.24
2023-03-01T04:48:21.673Z,8.24
2023-03-01T04:48:44.346Z,8.23
2023-03-01T04:49:06.277Z,8.21
2023-03-01T04:49:27.881Z,8.20
2023-03-01T04:49:50.456Z,8.19
2023-03-01T04:50:13.061Z,8.19
2023-03-01T04:50:35.609Z,8.18
2023-03-01T04:50:57.231Z,8.17
2023-03-01T04:51:19.826Z,8.11
2023-03-01T04:51:41.382Z,8.07
2023-03-01T04:52:03.885Z,8.10
2023-03-01T04:52:25.908Z,8.11
2023-03-01T04:52:50.126Z,8.09
2023-03-01T04:53:11.716Z,8.06
2023-03-01T04:53:33.893Z,8.07
2023-03-01T04:53:55.814Z,8.07
2023-03-01T04:54:18.400Z,8.03
2023-03-01T04:54:40.115Z,8.04
2023-03-01T04:55:01.910Z,8.06
2023-03-01T04:55:23.728Z,8.05
2023-03-01T04:55:46.307Z,8.05
2023-03-01T04:56:07.985Z,8.05
2023-03-01T04:56:30.006Z,8.06
2023-03-01T04:56:51.742Z,8.05
2023-03-01T04:57:14.287Z,8.07
2023-03-01T04:57:36.028Z,8.05
2023-03-01T04:57:57.593Z,8.05
2023-03-01T04:58:19.193Z,8.06
2023-03-01T04:58:41.850Z,8.05
2023-03-01T04:59:06.594Z,8.06
2023-03-01T04:59:28.992Z,8.02
2023-03-01T04:59:51.960Z,8.05
2023-03-01T05:00:23.696Z,8.01
2023-03-01T05:00:46.281Z,7.98
2023-03-01T05:01:16.104Z,7.97
2023-03-01T05:01:38.270Z,8.04
2023-03-01T05:02:01.388Z,8.03
2023-03-01T05:02:24.561Z,8.04
2023-03-01T05:02:47.182Z,7.96
2023-03-01T05:03:09.255Z,8.01
2023-03-01T05:03:32.336Z,8.03
2023-03-01T05:03:57.904Z,8.04
2023-03-01T05:04:19.615Z,8.04
2023-03-01T05:04:41.412Z,8.02
2023-03-01T05:05:03.114Z,7.99
2023-03-01T05:05:28.416Z,7.98
2023-03-01T05:05:52.518Z,7.96
2023-03-01T05:06:15.159Z,7.97
2023-03-01T05:06:37.722Z,7.86
2023-03-01T05:06:59.692Z,7.93
2023-03-01T05:07:21.884Z,7.96
2023-03-01T05:07:43.728Z,7.97
2023-03-01T05:08:09.265Z,8.00
2023-03-01T05:08:30.901Z,8.01
2023-03-01T05:08:52.451Z,7.98
2023-03-01T05:09:14.128Z,7.93
2023-03-01T05:09:36.859Z,7.98
2023-03-01T05:10:01.103Z,7.97
2023-03-01T05:10:23.969Z,7.85
2023-03-01T05:10:47.156Z,7.97
2023-03-01T05:11:11.430Z,7.97
2023-03-01T05:11:36.675Z,7.95
2023-03-01T05:11:58.305Z,7.90
2023-03-01T05:12:19.886Z,7.89
2023-03-01T05:12:41.820Z,7.83
2023-03-01T05:13:05.383Z,7.87
2023-03-01T05:13:27.187Z,7.86
2023-03-01T05:13:50.914Z,7.89
2023-03-01T05:14:13.552Z,7.89
2023-03-01T05:14:35.279Z,7.91
2023-03-01T05:14:59.325Z,7.92
2023-03-01T05:15:22.617Z,7.92
2023-03-01T05:15:45.312Z,7.88
2023-03-01T05:16:12.382Z,7.89